createdAt,value
2022-12-18T00:02:08.897Z,9.93
2022-12-18T00:04:35.418Z,9.43
2022-12-18T00:07:01.974Z,8.37
2022-12-18T00:09:31.152Z,7.93
2022-12-18T00:14:42.971Z,8.77
2022-12-18T00:17:10.114Z,7.40
2022-12-18T00:19:36.825Z,8.03
2022-12-18T00:22:03.557Z,8.70
2022-12-18T00:24:30.146Z,11.27
2022-12-18T00:26:56.732Z,8.00
2022-12-18T00:29:23.275Z,10.33
2022-12-18T00:31:49.883Z,9.80
2022-12-18T00:34:16.823Z,7.83
2022-12-18T00:36:43.397Z,8.87
2022-12-18T00:39:11.879Z,10.20
2022-12-18T00:41:57.480Z,8.60
2022-12-18T00:44:24.068Z,7.17
2022-12-18T00:46:50.608Z,9.43
2022-12-18T00:49:19.134Z,7.67
2022-12-18T00:51:46.538Z,7.67
2022-12-18T00:54:15.084Z,8.37
2022-12-18T00:56:49.970Z,10.20
2022-12-18T00:59:19.929Z,7.93
2022-12-18T01:01:47.029Z,8.63
2022-12-18T01:04:14.257Z,9.60
2022-12-18T01:06:41.186Z,10.43
2022-12-18T01:09:07.724Z,11.20
2022-12-18T01:11:34.378Z,9.00
2022-12-18T01:14:00.974Z,8.77
2022-12-18T01:16:27.689Z,9.33
2022-12-18T01:18:55.528Z,8.50
2022-12-18T01:21:22.943Z,8.47
2022-12-18T01:23:54.560Z,9.27
2022-12-18T01:26:21.280Z,9.93
2022-12-18T01:28:48.207Z,7.87
2022-12-18T01:31:29.594Z,8.07
2022-12-18T01:33:57.220Z,8.60
2022-12-18T01:36:37.849Z,7.30
2022-12-18T01:39:11.126Z,8.63
2022-12-18T01:41:56.454Z,8.47
2022-12-18T01:44:50.791Z,7.63
2022-12-18T01:47:41.183Z,6.87
2022-12-18T01:50:15.960Z,8.03
2022-12-18T01:52:47.888Z,8.03
2022-12-18T01:55:17.326Z,5.93
2022-12-18T01:57:44.147Z,8.27
2022-12-18T02:00:14.921Z,9.57
2022-12-18T02:02:43.967Z,9.50
2022-12-18T02:05:12.828Z,8.40
2022-12-18T02:08:09.019Z,7.77
2022-12-18T02:10:56.893Z,10.20
2022-12-18T02:13:33.508Z,10.97
2022-12-18T02:16:28.482Z,8.83
2022-12-18T02:19:02.061Z,9.30
2022-12-18T02:22:24.170Z,7.40
2022-12-18T02:25:31.469Z,7.80
2022-12-18T02:28:01.601Z,7.83
2022-12-18T02:30:32.236Z,8.67
2022-12-18T02:33:02.040Z,11.30
2022-12-18T02:35:31.287Z,8.67
2022-12-18T02:37:59.337Z,10.90
2022-12-18T02:40:28.526Z,11.57
2022-12-18T02:42:55.615Z,9.07
2022-12-18T02:45:22.195Z,12.50
2022-12-18T02:47:50.787Z,13.03
2022-12-18T02:50:42.828Z,9.33
2022-12-18T02:53:41.730Z,8.47
2022-12-18T02:56:20.456Z,10.57
2022-12-18T02:58:58.669Z,9.83
2022-12-18T03:01:34.837Z,10.43
2022-12-18T03:04:31.787Z,10.33
2022-12-18T03:07:03.873Z,11.27
2022-12-18T03:09:37.571Z,11.03
2022-12-18T03:12:26.495Z,10.03
2022-12-18T03:15:14.524Z,9.47
2022-12-18T03:17:54.053Z,10.07
2022-12-18T03:20:23.083Z,11.17
2022-12-18T03:22:54.801Z,9.70
2022-12-18T03:25:22.557Z,11.17
2022-12-18T03:27:55.476Z,12.00
2022-12-18T03:30:22.098Z,8.07
2022-12-18T03:32:57.649Z,11.33
2022-12-18T03:35:34.318Z,14.37
2022-12-18T03:38:01.046Z,10.97
2022-12-18T03:40:56.255Z,11.10
2022-12-18T03:43:41.225Z,11.53
2022-12-18T03:46:16.506Z,9.77
2022-12-18T03:48:51.749Z,10.50
2022-12-18T03:51:27.289Z,11.93
2022-12-18T03:54:07.437Z,11.63
2022-12-18T03:56:39.690Z,13.23
2022-12-18T03:59:08.944Z,11.67
2022-12-18T04:01:40.873Z,13.53
2022-12-18T04:04:09.418Z,14.50
2022-12-18T04:06:37.199Z,12.43
2022-12-18T04:09:05.745Z,11.60
2022-12-18T04:11:32.336Z,13.70
2022-12-18T04:13:59.694Z,14.83
2022-12-18T04:16:27.414Z,13.63
2022-12-18T04:18:55.269Z,11.43
2022-12-18T04:21:22.096Z,11.97
2022-12-18T04:23:48.608Z,15.13
2022-12-18T04:26:15.197Z,13.00
2022-12-18T04:28:41.862Z,14.13
2022-12-18T04:31:08.444Z,14.43
2022-12-18T04:33:35.124Z,13.50
2022-12-18T04:36:01.704Z,15.10
2022-12-18T04:38:28.400Z,15.10
2022-12-18T04:40:55.012Z,13.37
2022-12-18T04:43:21.883Z,15.97
2022-12-18T04:45:48.496Z,16.00
2022-12-18T04:48:15.179Z,16.60
2022-12-18T04:50:41.676Z,17.63
2022-12-18T04:53:08.255Z,18.00
2022-12-18T04:55:35.130Z,15.73
2022-12-18T04:58:01.628Z,17.73
2022-12-18T05:00:28.387Z,18.97
2022-12-18T05:02:55.508Z,16.57
2022-12-18T05:05:22.143Z,15.90
2022-12-18T05:07:48.736Z,17.67
2022-12-18T05:10:15.256Z,18.93
2022-12-18T05:13:00.829Z,18.83
2022-12-18T05:15:32.416Z,19.27
2022-12-18T05:18:00.206Z,18.00
2022-12-18T05:20:28.236Z,18.73
2022-12-18T05:22:55.541Z,19.17
2022-12-18T05:25:22.537Z,21.50
2022-12-18T05:27:49.350Z,18.93
2022-12-18T05:30:17.242Z,22.90
2022-12-18T05:32:44.274Z,19.97
2022-12-18T05:35:11.928Z,19.97
2022-12-18T05:37:42.886Z,21.50
2022-12-18T05:40:10.739Z,22.60
2022-12-18T05:42:37.242Z,24.90
2022-12-18T05:45:04.556Z,21.00
2022-12-18T05:47:31.137Z,24.30
2022-12-18T05:49:57.736Z,18.47
2022-12-18T05:52:24.361Z,23.13
2022-12-18T05:54:51.126Z,22.07
2022-12-18T05:57:17.694Z,23.87
2022-12-18T05:59:44.626Z,24.53
2022-12-18T06:02:11.322Z,24.40
2022-12-18T06:04:38.160Z,22.93
2022-12-18T06:07:04.783Z,22.70
2022-12-18T06:09:31.452Z,20.03
2022-12-18T06:11:58.015Z,22.27
2022-12-18T06:14:24.533Z,23.90
2022-12-18T06:16:54.172Z,21.67
2022-12-18T06:19:20.910Z,24.63
2022-12-18T06:21:48.112Z,23.50
2022-12-18T06:24:18.784Z,24.73
2022-12-18T06:26:45.413Z,23.10
2022-12-18T06:29:12.022Z,23.07
2022-12-18T06:31:38.626Z,23.57
2022-12-18T06:34:06.059Z,23.27
2022-12-18T06:36:33.171Z,29.40
2022-12-18T06:38:59.760Z,23.50
2022-12-18T06:41:26.582Z,25.73
2022-12-18T06:43:58.119Z,23.50
2022-12-18T06:46:26.178Z,28.30
2022-12-18T06:48:52.722Z,23.73
2022-12-18T06:51:24.072Z,26.40
2022-12-18T06:53:50.786Z,25.77
2022-12-18T06:56:17.791Z,23.97
2022-12-18T06:58:44.685Z,26.60
2022-12-18T07:01:12.961Z,29.80
2022-12-18T07:03:41.495Z,25.53
2022-12-18T07:06:15.099Z,31.93
2022-12-18T07:08:41.659Z,26.90
2022-12-18T07:11:08.351Z,27.87
2022-12-18T07:13:34.945Z,25.97
2022-12-18T07:16:22.355Z,26.33
2022-12-18T07:18:50.752Z,26.80
2022-12-18T07:21:19.647Z,29.47
2022-12-18T07:23:48.968Z,26.90
2022-12-18T07:26:18.824Z,26.70
2022-12-18T07:28:45.548Z,27.23
2022-12-18T07:31:15.585Z,27.17
2022-12-18T07:33:43.126Z,27.60
2022-12-18T07:36:11.257Z,29.23
2022-12-18T07:38:37.940Z,28.23
2022-12-18T07:41:14.768Z,26.47
2022-12-18T07:43:42.812Z,24.47
2022-12-18T07:46:10.902Z,27.07
2022-12-18T07:48:39.639Z,24.07
2022-12-18T07:51:08.166Z,26.77
2022-12-18T07:53:36.863Z,28.27
2022-12-18T07:56:26.710Z,27.87
2022-12-18T07:58:53.313Z,24.23
2022-12-18T08:01:19.993Z,25.33
2022-12-18T08:03:47.961Z,26.00
2022-12-18T08:06:14.897Z,29.33
2022-12-18T08:08:43.174Z,31.43
2022-12-18T08:11:09.853Z,28.27
2022-12-18T08:13:36.755Z,34.00
2022-12-18T08:16:08.452Z,29.37
2022-12-18T08:18:37.125Z,29.43
2022-12-18T08:21:16.051Z,30.87
2022-12-18T08:23:43.798Z,26.63
2022-12-18T08:26:11.957Z,28.40
2022-12-18T08:28:38.764Z,32.20
2022-12-18T08:31:05.904Z,31.80
2022-12-18T08:33:33.244Z,31.10
2022-12-18T08:36:00.913Z,34.33
2022-12-18T08:38:27.651Z,28.00
2022-12-18T08:41:01.492Z,26.20
2022-12-18T08:43:47.332Z,32.37
2022-12-18T08:46:14.244Z,34.63
2022-12-18T08:48:40.857Z,31.80
2022-12-18T08:51:07.784Z,31.30
2022-12-18T08:53:35.902Z,31.07
2022-12-18T08:56:03.695Z,32.10
2022-12-18T08:58:30.885Z,29.73
2022-12-18T09:01:05.581Z,33.27
2022-12-18T09:03:32.236Z,30.30
2022-12-18T09:05:58.789Z,30.73
2022-12-18T09:08:25.444Z,37.03
2022-12-18T09:10:53.031Z,33.60
2022-12-18T09:13:19.890Z,34.60
2022-12-18T09:15:48.968Z,31.83
2022-12-18T09:18:17.513Z,33.47
2022-12-18T09:20:45.251Z,35.03
2022-12-18T09:23:12.572Z,30.37
2022-12-18T09:25:39.480Z,33.63
2022-12-18T09:28:17.494Z,33.63
2022-12-18T09:30:49.866Z,35.50
2022-12-18T09:33:17.762Z,34.20
2022-12-18T09:35:46.006Z,34.17
2022-12-18T09:38:18.876Z,32.40
2022-12-18T09:40:52.627Z,36.57
2022-12-18T09:43:25.615Z,31.57
2022-12-18T09:45:58.161Z,34.70
2022-12-18T09:48:41.154Z,31.87
2022-12-18T09:51:18.573Z,36.23
2022-12-18T09:53:51.555Z,37.43
2022-12-18T09:56:23.582Z,35.63
2022-12-18T09:58:58.285Z,34.87
2022-12-18T10:01:28.968Z,34.37
2022-12-18T10:04:00.776Z,37.53
2022-12-18T10:06:39.373Z,34.67
2022-12-18T10:09:05.937Z,35.97
2022-12-18T10:11:47.400Z,36.50
2022-12-18T10:14:29.100Z,33.30
2022-12-18T10:17:11.004Z,32.67
2022-12-18T10:19:50.161Z,36.30
2022-12-18T10:22:40.436Z,35.00
2022-12-18T10:25:22.830Z,36.97
2022-12-18T10:27:54.386Z,35.77
2022-12-18T10:30:24.025Z,38.13
2022-12-18T10:32:51.065Z,37.07
2022-12-18T10:35:22.328Z,35.83
2022-12-18T10:38:15.172Z,38.57
2022-12-18T10:41:01.881Z,34.13
2022-12-18T10:43:38.715Z,38.23
2022-12-18T10:46:11.038Z,37.93
2022-12-18T10:48:50.115Z,40.30
2022-12-18T10:51:25.587Z,37.13
2022-12-18T10:53:58.567Z,35.87
2022-12-18T10:56:27.268Z,40.10
2022-12-18T10:59:09.555Z,35.87
2022-12-18T11:01:57.208Z,38.00
2022-12-18T11:04:29.832Z,40.73
2022-12-18T11:07:03.927Z,41.63
2022-12-18T11:09:35.905Z,39.63
2022-12-18T11:12:16.341Z,38.17
2022-12-18T11:14:50.632Z,40.40
2022-12-18T11:17:32.799Z,37.83
2022-12-18T11:20:01.706Z,38.63
2022-12-18T11:22:31.047Z,42.10
2022-12-18T11:28:26.013Z,37.43
2022-12-18T11:31:11.027Z,39.50
2022-12-18T11:33:53.192Z,40.53
2022-12-18T11:36:34.059Z,34.80
2022-12-18T11:39:10.539Z,38.87
2022-12-18T11:42:13.318Z,37.90
2022-12-18T11:44:42.550Z,38.97
2022-12-18T11:47:40.473Z,36.07
2022-12-18T11:50:15.448Z,35.93
2022-12-18T11:52:43.317Z,41.00
2022-12-18T11:55:16.180Z,39.80
2022-12-18T11:58:07.406Z,35.17
2022-12-18T12:00:41.860Z,36.40
2022-12-18T12:03:36.648Z,45.23
2022-12-18T12:06:34.822Z,38.83
2022-12-18T12:09:36.945Z,39.30
2022-12-18T12:12:24.782Z,39.87
2022-12-18T12:15:38.881Z,38.30
2022-12-18T12:18:37.424Z,40.43
2022-12-18T12:21:24.596Z,40.87
2022-12-18T12:23:58.331Z,39.93
2022-12-18T12:26:34.043Z,42.53
2022-12-18T12:29:23.176Z,41.47
2022-12-18T12:31:52.461Z,47.13
2022-12-18T12:34:23.437Z,39.73
2022-12-18T12:37:09.185Z,45.10
2022-12-18T12:39:40.579Z,43.87
2022-12-18T12:42:35.390Z,42.30
2022-12-18T12:45:07.614Z,43.57
2022-12-18T12:47:41.804Z,47.87
2022-12-18T12:50:17.370Z,39.83
2022-12-18T12:52:56.804Z,42.40
2022-12-18T12:55:29.063Z,41.97
2022-12-18T12:58:17.675Z,45.97
2022-12-18T13:00:58.492Z,44.13
2022-12-18T13:03:46.800Z,43.63
2022-12-18T13:06:55.635Z,42.27
2022-12-18T13:09:22.180Z,40.80
2022-12-18T13:12:07.671Z,43.70
2022-12-18T13:14:42.041Z,43.40
2022-12-18T13:17:25.886Z,43.50
2022-12-18T13:20:15.428Z,49.57
2022-12-18T13:22:51.273Z,47.40
2022-12-18T13:25:38.461Z,48.47
2022-12-18T13:28:16.509Z,43.60
2022-12-18T13:30:44.628Z,46.57
2022-12-18T13:33:25.346Z,48.17
2022-12-18T13:36:03.892Z,50.70
2022-12-18T13:38:33.167Z,44.77
2022-12-18T13:41:21.519Z,47.53
2022-12-18T13:43:54.425Z,45.67
2022-12-18T13:46:26.724Z,50.67
2022-12-18T13:49:14.885Z,54.23
2022-12-18T13:51:45.035Z,55.17
2022-12-18T13:54:23.454Z,47.83
2022-12-18T13:56:50.209Z,46.73
2022-12-18T13:59:23.215Z,47.63
2022-12-18T14:01:59.032Z,49.83
2022-12-18T14:04:31.572Z,46.40
2022-12-18T14:07:10.908Z,51.33
2022-12-18T14:10:41.816Z,53.27
2022-12-18T14:13:07.930Z,48.13
2022-12-18T14:15:40.455Z,47.80
2022-12-18T14:18:39.218Z,46.00
2022-12-18T14:21:06.745Z,46.23
2022-12-18T14:23:36.713Z,49.77
2022-12-18T14:26:20.945Z,50.47
2022-12-18T14:28:47.859Z,53.17
2022-12-18T14:31:23.107Z,48.77
2022-12-18T14:33:50.992Z,50.50
2022-12-18T14:36:23.504Z,61.20
2022-12-18T14:38:55.345Z,53.73
2022-12-18T14:41:23.448Z,53.40
2022-12-18T14:43:52.222Z,57.57
2022-12-18T14:46:37.798Z,53.23
2022-12-18T14:49:35.367Z,57.40
2022-12-18T14:52:17.484Z,55.47
2022-12-18T14:54:47.564Z,53.13
2022-12-18T14:57:24.557Z,53.23
2022-12-18T14:59:51.953Z,58.50
2022-12-18T15:02:26.259Z,62.00
2022-12-18T15:05:12.993Z,62.60
2022-12-18T15:07:47.668Z,57.40
2022-12-18T15:10:21.250Z,58.70
2022-12-18T15:12:50.435Z,67.07
2022-12-18T15:15:41.515Z,66.10
2022-12-18T15:18:08.042Z,62.50
2022-12-18T15:20:40.836Z,68.80
2022-12-18T15:23:24.273Z,64.60
2022-12-18T15:26:06.250Z,65.50
2022-12-18T15:28:36.293Z,71.63
2022-12-18T15:31:17.741Z,66.43
2022-12-18T15:33:53.930Z,69.43
2022-12-18T15:36:26.176Z,67.77
2022-12-18T15:38:55.199Z,67.53
2022-12-18T15:41:24.817Z,68.87
2022-12-18T15:43:53.222Z,70.63
2022-12-18T15:46:22.639Z,72.60
2022-12-18T15:48:55.427Z,76.80
2022-12-18T15:51:29.343Z,73.63
2022-12-18T15:53:59.529Z,75.23
2022-12-18T15:56:49.897Z,70.67
2022-12-18T15:59:19.084Z,72.53
2022-12-18T16:01:48.818Z,72.63
2022-12-18T16:04:18.013Z,74.90
2022-12-18T16:07:13.141Z,74.37
2022-12-18T16:09:31.246Z,69.50
2022-12-18T16:11:57.888Z,74.17
2022-12-18T16:14:27.701Z,82.67
2022-12-18T16:17:04.384Z,80.27
2022-12-18T16:19:31.405Z,77.87
2022-12-18T16:21:59.909Z,75.10
2022-12-18T16:24:29.836Z,85.00
2022-12-18T16:26:59.834Z,90.20
2022-12-18T16:29:28.731Z,81.07
2022-12-18T16:32:01.693Z,86.10
2022-12-18T16:34:31.415Z,81.10
2022-12-18T16:37:05.463Z,81.47
2022-12-18T16:39:36.228Z,84.63
2022-12-18T16:42:09.893Z,91.73
2022-12-18T16:44:36.862Z,94.40
2022-12-18T16:47:04.379Z,81.17
2022-12-18T16:49:31.980Z,81.30
2022-12-18T16:51:58.660Z,88.27
2022-12-18T16:54:25.414Z,94.27
2022-12-18T16:56:52.572Z,85.87
2022-12-18T16:59:19.368Z,93.10
2022-12-18T17:01:47.400Z,86.73
2022-12-18T17:04:14.779Z,93.87
2022-12-18T17:06:44.224Z,97.60
2022-12-18T17:09:15.923Z,90.87
2022-12-18T17:11:43.230Z,92.10
2022-12-18T17:14:14.127Z,86.97
2022-12-18T17:16:40.771Z,81.20
2022-12-18T17:19:12.112Z,90.47
2022-12-18T17:21:41.936Z,84.63
2022-12-18T17:24:08.937Z,85.20
2022-12-18T17:26:35.526Z,84.97
2022-12-18T17:29:02.114Z,87.83
2022-12-18T17:31:29.985Z,86.40
2022-12-18T17:33:57.580Z,83.63
2022-12-18T17:36:25.054Z,92.70
2022-12-18T17:38:56.363Z,84.97
2022-12-18T17:41:23.621Z,83.83
2022-12-18T17:44:06.776Z,95.33
2022-12-18T17:46:34.304Z,86.13
2022-12-18T17:49:03.003Z,88.30
2022-12-18T17:51:31.155Z,81.23
2022-12-18T17:53:57.773Z,94.47
2022-12-18T17:56:25.264Z,91.10
2022-12-18T17:58:52.306Z,90.03
2022-12-18T18:01:23.211Z,84.57
2022-12-18T18:03:50.766Z,87.20
2022-12-18T18:06:20.358Z,90.00
2022-12-18T18:08:46.925Z,93.67
2022-12-18T18:11:36.961Z,96.67
2022-12-18T18:14:06.980Z,92.77
2022-12-18T18:16:37.468Z,86.30
2022-12-18T18:19:08.210Z,89.43
2022-12-18T18:21:38.326Z,89.03
2022-12-18T18:24:05.811Z,92.67
2022-12-18T18:26:34.116Z,91.80
2022-12-18T18:29:03.028Z,84.40
2022-12-18T18:31:34.794Z,93.90
2022-12-18T18:34:06.936Z,101.30
2022-12-18T18:36:34.715Z,95.90
2022-12-18T18:39:02.191Z,94.23
2022-12-18T18:41:30.569Z,100.97
2022-12-18T18:43:58.539Z,90.90
2022-12-18T18:46:25.779Z,102.63
2022-12-18T18:48:52.614Z,90.73
2022-12-18T18:51:21.780Z,92.13
2022-12-18T18:53:50.581Z,93.53
2022-12-18T18:56:45.451Z,96.00
2022-12-18T18:59:05.863Z,101.37
2022-12-18T19:01:33.106Z,89.60
2022-12-18T19:04:00.810Z,87.00
2022-12-18T19:06:28.576Z,98.63
2022-12-18T19:08:57.061Z,93.67
2022-12-18T19:11:44.137Z,88.97
2022-12-18T19:14:13.645Z,100.67
2022-12-18T19:16:41.846Z,90.50
2022-12-18T19:19:08.997Z,95.23
2022-12-18T19:21:37.341Z,98.50
2022-12-18T19:24:05.134Z,96.17
2022-12-18T19:26:31.905Z,92.57
2022-12-18T19:29:03.240Z,96.33
2022-12-18T19:31:35.188Z,96.03
2022-12-18T19:34:02.686Z,85.57
2022-12-18T19:36:30.424Z,91.47
2022-12-18T19:38:59.916Z,98.73
2022-12-18T19:41:29.096Z,98.53
2022-12-18T19:43:58.431Z,95.87
2022-12-18T19:46:25.425Z,97.73
2022-12-18T19:48:52.502Z,100.50
2022-12-18T19:51:22.466Z,102.87
2022-12-18T19:53:53.591Z,94.53
2022-12-18T19:56:26.388Z,100.27
2022-12-18T19:58:53.987Z,91.30
2022-12-18T20:01:22.409Z,93.93
2022-12-18T20:03:52.559Z,99.40
2022-12-18T20:06:31.369Z,101.43
2022-12-18T20:09:01.394Z,91.93
2022-12-18T20:11:32.126Z,95.97
2022-12-18T20:13:58.865Z,92.57
2022-12-18T20:16:25.428Z,95.67
2022-12-18T20:18:55.059Z,95.53
2022-12-18T20:21:21.716Z,105.80
2022-12-18T20:23:48.280Z,103.70
2022-12-18T20:26:14.870Z,97.33
2022-12-18T20:28:42.297Z,105.50
2022-12-18T20:31:10.394Z,99.37
2022-12-18T20:33:37.616Z,104.50
2022-12-18T20:36:06.438Z,93.57
2022-12-18T20:38:35.481Z,104.43
2022-12-18T20:41:07.399Z,108.60
2022-12-18T20:43:34.006Z,95.87
2022-12-18T20:46:03.117Z,101.70
2022-12-18T20:48:30.248Z,95.03
2022-12-18T20:51:09.770Z,100.53
2022-12-18T20:53:36.893Z,101.23
2022-12-18T20:56:14.964Z,104.43
2022-12-18T20:58:45.380Z,96.87
2022-12-18T21:01:18.601Z,95.40
2022-12-18T21:03:46.532Z,104.70
2022-12-18T21:06:15.402Z,95.53
2022-12-18T21:08:42.508Z,100.30
2022-12-18T21:11:54.021Z,92.50
2022-12-18T21:14:23.257Z,95.10
2022-12-18T21:16:50.915Z,98.43
2022-12-18T21:19:20.044Z,94.30
2022-12-18T21:21:47.405Z,99.83
2022-12-18T21:24:14.261Z,92.13
2022-12-18T21:26:46.109Z,96.47
2022-12-18T21:29:15.776Z,97.13
2022-12-18T21:31:42.982Z,101.70
2022-12-18T21:34:14.886Z,91.13
2022-12-18T21:36:41.536Z,93.77
2022-12-18T21:39:08.445Z,101.33
2022-12-18T21:41:53.399Z,92.27
2022-12-18T21:44:22.413Z,98.10
2022-12-18T21:46:55.006Z,94.40
2022-12-18T21:49:26.401Z,94.47
2022-12-18T21:51:56.106Z,88.67
2022-12-18T21:54:25.125Z,95.17
2022-12-18T21:56:55.829Z,100.83
2022-12-18T21:59:29.323Z,99.23
2022-12-18T22:01:58.319Z,99.53
2022-12-18T22:04:25.766Z,95.33
2022-12-18T22:06:52.662Z,95.13
2022-12-18T22:09:21.437Z,104.17
2022-12-18T22:11:49.230Z,109.53
2022-12-18T22:14:16.784Z,97.40
2022-12-18T22:16:43.815Z,106.93
2022-12-18T22:19:11.071Z,102.37
2022-12-18T22:21:40.227Z,97.57
2022-12-18T22:24:10.670Z,103.23
2022-12-18T22:26:40.195Z,97.63
2022-12-18T22:29:26.399Z,104.87
2022-12-18T22:31:52.939Z,112.63
2022-12-18T22:34:22.991Z,107.40
2022-12-18T22:36:50.809Z,100.63
2022-12-18T22:39:28.545Z,103.83
2022-12-18T22:41:56.457Z,108.80
2022-12-18T22:44:26.177Z,107.40
2022-12-18T22:46:55.860Z,107.27
2022-12-18T22:49:33.148Z,103.47
2022-12-18T22:52:02.191Z,102.87
2022-12-18T22:54:28.775Z,103.23
2022-12-18T22:56:55.676Z,111.90
2022-12-18T22:59:23.355Z,107.13
2022-12-18T23:01:58.579Z,115.03
2022-12-18T23:04:36.064Z,121.80
2022-12-18T23:07:06.478Z,113.43
2022-12-18T23:09:33.948Z,100.57
2022-12-18T23:12:01.169Z,112.13
2022-12-18T23:14:28.746Z,104.57
2022-12-18T23:16:55.400Z,107.93
2022-12-18T23:19:23.611Z,115.70
2022-12-18T23:21:51.214Z,114.80
2022-12-18T23:24:18.202Z,116.03
2022-12-18T23:26:44.734Z,110.57
2022-12-18T23:29:11.314Z,109.27
2022-12-18T23:31:39.309Z,107.87
2022-12-18T23:34:06.991Z,118.90
2022-12-18T23:36:45.637Z,108.53
2022-12-18T23:39:19.964Z,107.67
2022-12-18T23:41:56.164Z,111.33
2022-12-18T23:44:22.863Z,110.70
2022-12-18T23:46:49.491Z,108.83
2022-12-18T23:49:16.195Z,113.87
2022-12-18T23:51:42.891Z,123.57
2022-12-18T23:54:10.256Z,120.17
2022-12-18T23:56:36.874Z,120.77
2022-12-18T23:59:03.573Z,123.87
